WMT8XC LIPZ-LFBD
Flight info
| Callsign | WMT8XC |
|---|---|
| Flight time | N/A |
| Altitude | 31000 |
| Route | VIC8X/04R VIC DCT VADIK DCT ADOSA DCT EVANO/N0403F270 DCT RONOP/N0408F280 DCT GIGUS/N0440F380 DCT BALSI DCT GIPNO DCT RUSIT DCT TIS/N0443F370 DCT LMG |
| Aircraft | A320/M-SDE1E2E3FGIJ1J4RWXY/LB1 |
Departure
| Time | N/A |
|---|---|
| Airport | Venice Marco Polo Airport (LIPZ) |
Arrival
| Time | 2026-05-03 20:34 |
|---|---|
| Airport | Bordeaux–Mérignac Airport (LFBD) |
| Time | Latitude | Longitude | Altitude | Speed | Heading |
|---|---|---|---|---|---|
| 2026-05-03 20:15 | 45.22831 | 1.31021 | 28164 ft | 375 kts | 256° |
| 2026-05-03 20:15 | 45.22374 | 1.27391 | 27686 ft | 372 kts | 256° |
| 2026-05-03 20:15 | 45.21919 | 1.23797 | 27201 ft | 369 kts | 256° |
| 2026-05-03 20:15 | 45.21468 | 1.20220 | 26723 ft | 368 kts | 257° |
| 2026-05-03 20:16 | 45.21019 | 1.16654 | 26256 ft | 366 kts | 257° |
| 2026-05-03 20:16 | 45.20571 | 1.13112 | 25789 ft | 365 kts | 256° |
| 2026-05-03 20:16 | 45.20121 | 1.09565 | 25287 ft | 365 kts | 256° |
| 2026-05-03 20:16 | 45.19671 | 1.06028 | 24898 ft | 362 kts | 256° |
| 2026-05-03 20:17 | 45.19227 | 1.02542 | 24524 ft | 358 kts | 256° |
| 2026-05-03 20:17 | 45.18780 | 0.99061 | 24035 ft | 358 kts | 256° |
| 2026-05-03 20:17 | 45.18338 | 0.95637 | 23607 ft | 357 kts | 257° |
| 2026-05-03 20:17 | 45.17891 | 0.92186 | 23078 ft | 355 kts | 257° |
| 2026-05-03 20:18 | 45.17447 | 0.88746 | 22626 ft | 352 kts | 257° |
| 2026-05-03 20:18 | 45.17008 | 0.85343 | 22179 ft | 349 kts | 257° |
| 2026-05-03 20:18 | 45.16570 | 0.81964 | 21723 ft | 347 kts | 257° |
| 2026-05-03 20:18 | 45.16133 | 0.78610 | 21271 ft | 344 kts | 257° |
| 2026-05-03 20:19 | 45.15699 | 0.75286 | 20838 ft | 342 kts | 256° |
| 2026-05-03 20:19 | 45.15272 | 0.72022 | 20428 ft | 340 kts | 256° |
| 2026-05-03 20:19 | 45.14845 | 0.68736 | 20023 ft | 337 kts | 256° |
| 2026-05-03 20:19 | 45.14419 | 0.65484 | 19628 ft | 334 kts | 256° |
| 2026-05-03 20:20 | 45.13994 | 0.62248 | 19206 ft | 332 kts | 256° |
| 2026-05-03 20:20 | 45.13570 | 0.59039 | 18805 ft | 329 kts | 256° |
| 2026-05-03 20:20 | 45.13152 | 0.55898 | 18418 ft | 327 kts | 257° |
| 2026-05-03 20:20 | 45.12731 | 0.52740 | 18008 ft | 325 kts | 257° |
| 2026-05-03 20:21 | 45.12312 | 0.49610 | 17581 ft | 323 kts | 257° |
| 2026-05-03 20:21 | 45.11899 | 0.46504 | 17292 ft | 316 kts | 257° |
| 2026-05-03 20:21 | 45.11497 | 0.43456 | 16918 ft | 313 kts | 257° |
| 2026-05-03 20:21 | 45.11100 | 0.40461 | 16534 ft | 311 kts | 257° |
| 2026-05-03 20:22 | 45.10697 | 0.37456 | 16175 ft | 309 kts | 256° |
| 2026-05-03 20:22 | 45.10295 | 0.34469 | 15851 ft | 305 kts | 256° |
| 2026-05-03 20:22 | 45.09897 | 0.31522 | 15489 ft | 303 kts | 256° |
| 2026-05-03 20:22 | 45.09504 | 0.28613 | 15013 ft | 306 kts | 257° |
| 2026-05-03 20:23 | 45.09103 | 0.25653 | 14609 ft | 305 kts | 257° |
| 2026-05-03 20:23 | 45.08704 | 0.22701 | 14225 ft | 304 kts | 257° |
| 2026-05-03 20:23 | 45.08304 | 0.19754 | 13862 ft | 303 kts | 257° |
| 2026-05-03 20:23 | 45.07905 | 0.16827 | 13457 ft | 302 kts | 257° |
| 2026-05-03 20:24 | 45.07503 | 0.13886 | 12724 ft | 310 kts | 257° |
| 2026-05-03 20:24 | 45.07095 | 0.10908 | 12174 ft | 313 kts | 257° |
| 2026-05-03 20:24 | 45.06680 | 0.07881 | 11777 ft | 310 kts | 257° |
| 2026-05-03 20:24 | 45.06270 | 0.04885 | 11331 ft | 310 kts | 257° |
| 2026-05-03 20:25 | 45.05860 | 0.01892 | 10899 ft | 309 kts | 257° |
| 2026-05-03 20:25 | 45.05450 | -0.01083 | 10497 ft | 307 kts | 257° |
| 2026-05-03 20:25 | 45.05046 | -0.04010 | 10066 ft | 307 kts | 257° |
| 2026-05-03 20:25 | 45.04636 | -0.06976 | 9641 ft | 306 kts | 257° |
| 2026-05-03 20:26 | 45.04230 | -0.09899 | 9437 ft | 297 kts | 257° |
| 2026-05-03 20:26 | 45.03838 | -0.12720 | 9301 ft | 287 kts | 257° |
| 2026-05-03 20:26 | 45.03459 | -0.15444 | 9127 ft | 279 kts | 257° |
| 2026-05-03 20:26 | 45.03086 | -0.18130 | 8821 ft | 276 kts | 257° |
| 2026-05-03 20:27 | 45.02717 | -0.20785 | 8490 ft | 275 kts | 257° |
| 2026-05-03 20:27 | 45.02352 | -0.23408 | 8166 ft | 274 kts | 257° |
| 2026-05-03 20:27 | 45.01985 | -0.26032 | 7693 ft | 270 kts | 257° |
| 2026-05-03 20:27 | 45.01620 | -0.28639 | 7093 ft | 269 kts | 257° |
| 2026-05-03 20:28 | 45.01258 | -0.31228 | 6510 ft | 268 kts | 257° |
| 2026-05-03 20:28 | 45.00898 | -0.33801 | 5922 ft | 266 kts | 257° |
| 2026-05-03 20:28 | 45.00537 | -0.36365 | 5327 ft | 265 kts | 256° |
| 2026-05-03 20:28 | 45.00173 | -0.38943 | 4979 ft | 266 kts | 256° |
| 2026-05-03 20:29 | 44.99816 | -0.41469 | 4678 ft | 265 kts | 256° |
| 2026-05-03 20:29 | 44.99452 | -0.44026 | 4340 ft | 265 kts | 256° |
| 2026-05-03 20:29 | 44.99087 | -0.46586 | 3992 ft | 265 kts | 255° |
| 2026-05-03 20:29 | 44.98433 | -0.48983 | 3661 ft | 260 kts | 235° |
| 2026-05-03 20:30 | 44.97287 | -0.50934 | 3338 ft | 257 kts | 223° |
| 2026-05-03 20:30 | 44.96011 | -0.52710 | 3053 ft | 256 kts | 222° |
| 2026-05-03 20:30 | 44.94760 | -0.54475 | 3003 ft | 258 kts | 223° |
| 2026-05-03 20:30 | 44.93494 | -0.56294 | 2820 ft | 259 kts | 223° |
| 2026-05-03 20:31 | 44.92229 | -0.58114 | 2518 ft | 258 kts | 223° |
| 2026-05-03 20:31 | 44.90999 | -0.59882 | 2176 ft | 251 kts | 223° |
| 2026-05-03 20:31 | 44.89822 | -0.61574 | 1860 ft | 230 kts | 223° |
| 2026-05-03 20:31 | 44.88758 | -0.63101 | 1560 ft | 208 kts | 223° |
| 2026-05-03 20:32 | 44.87783 | -0.64497 | 1309 ft | 189 kts | 224° |
| 2026-05-03 20:32 | 44.86917 | -0.65738 | 1074 ft | 169 kts | 223° |
| 2026-05-03 20:32 | 44.86124 | -0.66875 | 832 ft | 157 kts | 222° |
| 2026-05-03 20:32 | 44.85380 | -0.67948 | 632 ft | 149 kts | 223° |
| 2026-05-03 20:33 | 44.84657 | -0.68968 | 429 ft | 145 kts | 223° |
| 2026-05-03 20:33 | 44.83945 | -0.69989 | 225 ft | 145 kts | 223° |
| 2026-05-03 20:33 | 44.83263 | -0.70943 | 167 ft | 120 kts | 227° |
| 2026-05-03 20:33 | 44.82805 | -0.71622 | 168 ft | 71 kts | 225° |
| 2026-05-03 20:34 | 44.82565 | -0.71941 | 166 ft | 9 kts | 197° |
| 2026-05-03 20:34 | 44.82540 | -0.71920 | 164 ft | 4 kts | 125° |
| 2026-05-03 20:34 | 44.82516 | -0.71878 | 163 ft | 7 kts | 128° |
| 2026-05-03 20:34 | 44.82489 | -0.71822 | 163 ft | 7 kts | 123° |
| 2026-05-03 20:35 | 44.82460 | -0.71768 | 165 ft | 6 kts | 129° |
| 2026-05-03 20:35 | 44.82440 | -0.71725 | 166 ft | 2 kts | 99° |
| 2026-05-03 20:35 | 44.82454 | -0.71691 | 167 ft | 13 kts | 64° |
| 2026-05-03 20:35 | 44.82532 | -0.71557 | 168 ft | 19 kts | 44° |
| 2026-05-03 20:36 | 44.82627 | -0.71424 | 166 ft | 19 kts | 44° |
| 2026-05-03 20:36 | 44.82724 | -0.71288 | 164 ft | 20 kts | 45° |
| 2026-05-03 20:36 | 44.82833 | -0.71140 | 162 ft | 22 kts | 46° |
| 2026-05-03 20:36 | 44.82933 | -0.70988 | 164 ft | 20 kts | 43° |
| 2026-05-03 20:37 | 44.83030 | -0.70848 | 165 ft | 20 kts | 44° |
| 2026-05-03 20:37 | 44.83129 | -0.70709 | 165 ft | 20 kts | 45° |
| 2026-05-03 20:37 | 44.83208 | -0.70582 | 165 ft | 14 kts | 71° |
| 2026-05-03 20:37 | 44.83202 | -0.70479 | 165 ft | 8 kts | 50° |
| 2026-05-03 20:38 | 44.83244 | -0.70422 | 165 ft | 9 kts | 46° |
| 2026-05-03 20:38 | 44.83239 | -0.70355 | 166 ft | 8 kts | 119° |
| 2026-05-03 20:38 | 44.83224 | -0.70312 | 166 ft | 0 kts | 115° |
| 2026-05-03 21:14 | 44.83229 | -0.70327 | 163 ft | 4 kts | 116° |
| 2026-05-03 21:14 | 44.83239 | -0.70354 | 163 ft | 4 kts | 113° |
| 2026-05-03 21:14 | 44.83247 | -0.70390 | 163 ft | 4 kts | 94° |
| 2026-05-03 21:15 | 44.83243 | -0.70423 | 163 ft | 3 kts | 47° |
| 2026-05-03 21:15 | 44.83241 | -0.70426 | 163 ft | 0 kts | 45° |
| 2026-05-03 21:17 | 44.83243 | -0.70424 | 163 ft | 1 kts | 45° |
| 2026-05-03 21:17 | 44.83255 | -0.70406 | 163 ft | 4 kts | 45° |
| 2026-05-03 21:18 | 44.83280 | -0.70371 | 163 ft | 6 kts | 45° |
| 2026-05-03 21:18 | 44.83317 | -0.70322 | 164 ft | 8 kts | 38° |
| 2026-05-03 21:18 | 44.83374 | -0.70333 | 164 ft | 10 kts | 345° |
| 2026-05-03 21:18 | 44.83431 | -0.70278 | 164 ft | 11 kts | 45° |
| 2026-05-03 21:19 | 44.83492 | -0.70190 | 163 ft | 14 kts | 45° |
| 2026-05-03 21:19 | 44.83566 | -0.70085 | 163 ft | 16 kts | 45° |
| 2026-05-03 21:19 | 44.83646 | -0.70004 | 163 ft | 12 kts | 1° |
| 2026-05-03 21:19 | 44.83695 | -0.70027 | 161 ft | 10 kts | 337° |
| 2026-05-03 21:20 | 44.83774 | -0.70075 | 160 ft | 13 kts | 333° |
| 2026-05-03 21:20 | 44.83808 | -0.70181 | 162 ft | 13 kts | 248° |
| 2026-05-03 21:20 | 44.83763 | -0.70251 | 161 ft | 1 kts | 225° |
| 2026-05-03 21:20 | 44.83759 | -0.70257 | 161 ft | 2 kts | 225° |
| 2026-05-03 21:21 | 44.83732 | -0.70295 | 162 ft | 17 kts | 225° |
| 2026-05-03 21:21 | 44.83507 | -0.70614 | 163 ft | 80 kts | 225° |
| 2026-05-03 21:21 | 44.82975 | -0.71376 | 162 ft | 135 kts | 226° |
| 2026-05-03 21:21 | 44.82221 | -0.72445 | 329 ft | 162 kts | 224° |
| 2026-05-03 21:22 | 44.81446 | -0.73588 | 969 ft | 163 kts | 223° |
| 2026-05-03 21:22 | 44.80645 | -0.74739 | 1587 ft | 164 kts | 222° |
| 2026-05-03 21:22 | 44.79829 | -0.75887 | 2080 ft | 173 kts | 221° |
| 2026-05-03 21:22 | 44.78934 | -0.77145 | 2354 ft | 195 kts | 224° |
| 2026-05-03 21:23 | 44.77900 | -0.78609 | 2649 ft | 220 kts | 223° |
| 2026-05-03 21:23 | 44.76628 | -0.79918 | 3066 ft | 242 kts | 204° |